Time;durP1;ratioP1;P1;durP2;ratioP2;P2;SDS_P1;SDS_P2;PMS_P1;PMS_P2;Temp;Humidity;BMP_temperature;BMP_pressure;BME280_temperature;BME280_humidity;BME280_pressure;Samples;Min_cycle;Max_cycle;Signal;HPM_P1;HPM_P2
2021/12/12 00:00:44;;;;;;;11.98;7.30;;;2.80;99.90;;;;;;5029588;28;20295;-65
2021/12/12 00:03:20;;;;;;;13.73;6.85;;;2.70;99.90;;;;;;5040579;28;20203;-63
2021/12/12 00:05:51;;;;;;;7.65;5.68;;;2.70;99.90;;;;;;5031908;28;20966;-66
2021/12/12 00:08:21;;;;;;;9.32;5.65;;;2.70;99.90;;;;;;5032786;28;20287;-65
2021/12/12 00:10:53;;;;;;;10.75;6.60;;;2.60;99.90;;;;;;5024544;28;20295;-68
2021/12/12 00:13:25;;;;;;;8.93;6.35;;;2.60;99.90;;;;;;5034617;28;20287;-65
2021/12/12 00:15:53;;;;;;;12.75;7.50;;;2.60;99.90;;;;;;5027160;28;20254;-65
2021/12/12 00:18:22;;;;;;;8.57;6.20;;;2.60;99.90;;;;;;5040232;28;20299;-64
2021/12/12 00:20:51;;;;;;;8.73;6.13;;;2.50;99.90;;;;;;5026907;28;20629;-65
2021/12/12 00:23:19;;;;;;;10.25;6.93;;;2.50;99.90;;;;;;5028269;28;20278;-64
2021/12/12 00:25:52;;;;;;;8.40;6.85;;;2.50;99.90;;;;;;5037197;28;20347;-65
2021/12/12 00:28:22;;;;;;;7.95;5.97;;;2.50;99.90;;;;;;5037569;28;20287;-66
2021/12/12 00:30:51;;;;;;;10.63;6.97;;;2.50;99.90;;;;;;5031143;28;20279;-65
2021/12/12 00:33:20;;;;;;;9.30;7.20;;;2.50;99.90;;;;;;5038101;28;20231;-65
2021/12/12 00:35:50;;;;;;;7.30;6.60;;;2.40;99.90;;;;;;5035616;28;20788;-66
2021/12/12 00:38:24;;;;;;;11.63;7.78;;;2.40;99.90;;;;;;5028967;28;20347;-64
2021/12/12 00:40:55;;;;;;;18.67;7.25;;;2.40;99.90;;;;;;5020975;28;20228;-63
2021/12/12 00:43:27;;;;;;;10.40;7.43;;;2.40;99.90;;;;;;5017418;28;20275;-63
2021/12/12 00:45:59;;;;;;;9.13;6.85;;;2.40;99.90;;;;;;5021224;28;20225;-64
2021/12/12 00:48:30;;;;;;;9.75;7.43;;;2.30;99.90;;;;;;5031375;28;20287;-65
2021/12/12 00:51:00;;;;;;;9.90;7.95;;;2.40;99.90;;;;;;5024795;28;20221;-65
2021/12/12 00:53:28;;;;;;;11.45;8.77;;;2.60;99.90;;;;;;5012712;28;20284;-65
2021/12/12 00:55:57;;;;;;;13.05;9.63;;;2.90;99.90;;;;;;5019390;28;20303;-66
2021/12/12 00:58:25;;;;;;;11.05;8.20;;;3.10;99.90;;;;;;5017221;28;21125;-65
2021/12/12 01:00:57;;;;;;;10.40;6.95;;;3.00;99.90;;;;;;5018742;28;20227;-64
2021/12/12 01:03:30;;;;;;;10.45;8.88;;;2.90;99.90;;;;;;5014456;28;20202;-65
2021/12/12 01:06:02;;;;;;;10.07;8.05;;;2.90;99.90;;;;;;5019684;28;20236;-64
2021/12/12 01:08:30;;;;;;;11.10;8.27;;;3.20;99.90;;;;;;5028779;28;20221;-64
2021/12/12 01:11:03;;;;;;;15.20;9.30;;;3.30;99.90;;;;;;5030776;28;20198;-65
2021/12/12 01:13:32;;;;;;;13.30;7.90;;;3.40;99.90;;;;;;5030723;28;20225;-64
2021/12/12 01:16:04;;;;;;;11.30;7.40;;;3.50;99.90;;;;;;5025074;28;20218;-64
2021/12/12 01:18:37;;;;;;;9.32;6.93;;;3.60;99.90;;;;;;5016018;28;20582;-64
2021/12/12 01:21:12;;;;;;;9.20;6.43;;;3.70;99.90;;;;;;5032578;28;20661;-64
2021/12/12 01:23:43;;;;;;;13.05;7.32;;;3.70;99.90;;;;;;5032227;28;20224;-65
2021/12/12 01:26:12;;;;;;;9.60;6.85;;;3.80;99.90;;;;;;5032663;28;20587;-67
2021/12/12 01:28:43;;;;;;;9.05;6.90;;;3.90;99.90;;;;;;5032609;28;20250;-64
2021/12/12 01:31:14;;;;;;;10.85;6.70;;;3.90;99.90;;;;;;5034626;28;20228;-65
2021/12/12 01:33:43;;;;;;;12.35;7.70;;;3.90;99.90;;;;;;5052375;28;20239;-65
2021/12/12 01:36:23;;;;;;;9.35;6.78;;;4.00;99.90;;;;;;5088615;22;20317;-68
2021/12/12 01:38:53;;;;;;;6.78;5.82;;;4.10;99.90;;;;;;5065872;28;20670;-68
2021/12/12 01:41:26;;;;;;;7.03;6.10;;;4.10;99.90;;;;;;5072224;28;20274;-68
2021/12/12 01:43:58;;;;;;;12.82;6.35;;;4.10;99.90;;;;;;5072083;28;20725;-68
2021/12/12 01:46:34;;;;;;;8.05;6.75;;;4.10;99.90;;;;;;5054248;28;20314;-68
2021/12/12 01:49:08;;;;;;;8.75;6.28;;;3.90;99.90;;;;;;5071811;28;20215;-69
2021/12/12 01:51:38;;;;;;;9.68;6.72;;;4.00;99.90;;;;;;5072215;28;20260;-68
2021/12/12 01:54:08;;;;;;;11.93;6.68;;;3.90;99.90;;;;;;5052372;28;20238;-68
2021/12/12 01:56:42;;;;;;;9.32;6.93;;;3.90;99.90;;;;;;5051837;28;20241;-68
2021/12/12 01:59:13;;;;;;;7.72;6.78;;;4.00;99.90;;;;;;5051451;28;20239;-68
2021/12/12 02:01:47;;;;;;;7.70;5.95;;;4.00;99.90;;;;;;5052001;28;20291;-68
2021/12/12 02:04:20;;;;;;;10.43;6.32;;;4.00;99.90;;;;;;5046682;28;20200;-68
2021/12/12 02:06:51;;;;;;;6.40;5.80;;;4.20;99.90;;;;;;5053461;28;20299;-68
2021/12/12 02:09:20;;;;;;;8.85;6.60;;;4.10;99.90;;;;;;5054856;28;20261;-68
2021/12/12 02:11:52;;;;;;;7.47;6.25;;;4.10;99.90;;;;;;5051811;28;20215;-67
2021/12/12 02:14:22;;;;;;;8.95;6.72;;;3.90;99.90;;;;;;5051921;28;20223;-68
2021/12/12 02:16:54;;;;;;;8.35;6.00;;;3.90;99.90;;;;;;5053301;28;20307;-68
2021/12/12 02:19:30;;;;;;;9.93;6.72;;;3.90;99.90;;;;;;5062653;28;20211;-68
2021/12/12 02:22:06;;;;;;;8.43;6.80;;;4.20;99.90;;;;;;5066787;28;20222;-68
2021/12/12 02:35:45;;;;;;;10.60;6.18;;;4.20;99.90;;;;;;5051322;28;20311;-68
2021/12/12 02:38:16;;;;;;;9.55;5.68;;;4.30;99.90;;;;;;5059453;28;20253;-68
2021/12/12 02:40:49;;;;;;;7.47;6.68;;;4.30;99.90;;;;;;5071534;28;20253;-68
2021/12/12 02:43:20;;;;;;;8.23;6.28;;;4.20;99.90;;;;;;5071326;28;20229;-67
2021/12/12 02:45:51;;;;;;;9.02;6.65;;;4.30;99.90;;;;;;5032086;28;20271;-68
2021/12/12 02:48:20;;;;;;;11.07;7.28;;;4.30;99.90;;;;;;5031968;28;20196;-67
2021/12/12 02:50:51;;;;;;;10.27;7.78;;;4.30;99.90;;;;;;5031365;28;20225;-68
2021/12/12 02:53:21;;;;;;;9.43;6.85;;;4.20;99.90;;;;;;5051470;28;20191;-68
2021/12/12 02:55:55;;;;;;;14.23;6.97;;;4.30;99.90;;;;;;5071881;28;20344;-68
2021/12/12 02:58:26;;;;;;;6.90;6.07;;;4.20;99.90;;;;;;5071775;28;20282;-68
2021/12/12 03:00:59;;;;;;;11.23;7.22;;;4.10;99.90;;;;;;5071600;28;20618;-68
2021/12/12 03:03:30;;;;;;;9.02;6.95;;;4.10;99.90;;;;;;5041318;28;20200;-68
2021/12/12 03:05:58;;;;;;;7.70;6.47;;;4.10;99.90;;;;;;5016648;28;20266;-68
2021/12/12 03:08:26;;;;;;;7.68;6.50;;;4.20;99.90;;;;;;5069954;28;20223;-68
2021/12/12 03:10:56;;;;;;;7.70;6.03;;;4.20;99.90;;;;;;5049661;28;20191;-67
2021/12/12 03:13:25;;;;;;;8.82;6.55;;;4.30;99.90;;;;;;5065432;28;20219;-68
2021/12/12 03:15:55;;;;;;;9.32;6.22;;;4.40;99.90;;;;;;5071064;28;20321;-68
2021/12/12 03:18:28;;;;;;;7.18;5.75;;;4.40;99.90;;;;;;5071047;28;20203;-68
2021/12/12 03:20:59;;;;;;;6.18;5.47;;;4.40;99.90;;;;;;5070042;28;20273;-69
2021/12/12 03:23:29;;;;;;;7.45;5.55;;;4.50;99.90;;;;;;5031153;28;20287;-68
2021/12/12 03:26:03;;;;;;;6.57;5.80;;;4.50;99.90;;;;;;5030980;28;20646;-68
2021/12/12 03:28:34;;;;;;;9.73;6.13;;;4.30;99.90;;;;;;5031033;28;20228;-68
2021/12/12 03:31:06;;;;;;;9.10;6.35;;;4.30;99.90;;;;;;5069710;28;20679;-68
2021/12/12 03:33:34;;;;;;;15.15;7.03;;;4.20;99.90;;;;;;5070968;28;20203;-68
2021/12/12 03:36:05;;;;;;;7.43;6.28;;;4.20;99.90;;;;;;5062618;28;20273;-66
2021/12/12 03:38:36;;;;;;;10.15;7.05;;;4.20;99.90;;;;;;5046222;28;20286;-67
2021/12/12 03:41:11;;;;;;;11.32;6.72;;;4.10;99.90;;;;;;5060059;28;20269;-67
2021/12/12 03:43:39;;;;;;;11.23;7.47;;;3.90;99.90;;;;;;5063372;28;20241;-68
2021/12/12 03:46:10;;;;;;;9.40;7.32;;;4.00;99.90;;;;;;5054349;28;20299;-68
2021/12/12 03:48:42;;;;;;;12.73;7.43;;;4.10;99.90;;;;;;5054450;28;20286;-68
2021/12/12 03:51:13;;;;;;;6.95;6.13;;;4.20;99.90;;;;;;5054071;28;20558;-68
2021/12/12 03:53:41;;;;;;;9.57;6.95;;;4.20;99.90;;;;;;5045375;28;20227;-68
2021/12/12 03:56:13;;;;;;;10.68;7.22;;;4.30;99.90;;;;;;5037516;28;20314;-68
2021/12/12 03:58:41;;;;;;;9.77;7.10;;;4.20;99.90;;;;;;5053186;28;20248;-68
2021/12/12 04:01:13;;;;;;;10.55;7.25;;;4.20;99.90;;;;;;5073833;28;20691;-69
2021/12/12 04:03:43;;;;;;;9.32;7.38;;;4.10;99.90;;;;;;5054843;28;20288;-68
2021/12/12 04:06:16;;;;;;;9.60;7.38;;;4.20;99.90;;;;;;5054973;28;20330;-68
2021/12/12 04:08:49;;;;;;;12.15;7.00;;;4.20;99.90;;;;;;5074014;28;20286;-68
2021/12/12 04:11:21;;;;;;;9.82;7.00;;;4.30;99.90;;;;;;5055943;28;20198;-67
2021/12/12 04:13:51;;;;;;;9.65;7.05;;;4.30;99.90;;;;;;5060934;28;20287;-68
2021/12/12 04:16:21;;;;;;;9.57;7.70;;;4.30;99.90;;;;;;5051006;28;20247;-68
2021/12/12 04:18:49;;;;;;;11.50;7.40;;;4.10;99.90;;;;;;5044621;28;20211;-68
2021/12/12 04:21:20;;;;;;;13.43;8.38;;;4.00;99.90;;;;;;5053431;28;20643;-67
2021/12/12 04:23:49;;;;;;;10.75;7.40;;;4.10;99.90;;;;;;5053823;28;20192;-67
2021/12/12 04:26:20;;;;;;;10.10;7.10;;;4.20;99.90;;;;;;5053561;28;20234;-68
2021/12/12 04:28:59;;;;;;;10.52;7.57;;;4.20;99.90;;;;;;5052057;28;20235;-67
2021/12/12 04:31:27;;;;;;;7.85;6.22;;;4.30;99.90;;;;;;5053314;28;20282;-68
2021/12/12 04:33:56;;;;;;;9.15;6.82;;;4.30;99.90;;;;;;5053676;28;20239;-68
2021/12/12 04:36:26;;;;;;;8.35;6.82;;;4.30;99.90;;;;;;5072451;28;20720;-68
2021/12/12 04:39:04;;;;;;;26.42;7.53;;;4.20;99.90;;;;;;5073071;28;20274;-67
2021/12/12 04:41:34;;;;;;;13.52;7.82;;;4.30;99.90;;;;;;5065909;28;20251;-68
2021/12/12 04:44:02;;;;;;;13.25;7.40;;;4.20;99.90;;;;;;5063829;28;20229;-67
2021/12/12 04:49:54;;;;;;;13.23;7.50;;;4.00;99.90;;;;;;5060134;28;20262;-68
2021/12/12 04:52:13;;;;;;;9.65;7.05;;;4.00;99.90;;;;;;5053141;28;20216;-67
2021/12/12 04:54:48;;;;;;;12.85;7.40;;;4.00;99.90;;;;;;5053242;28;20208;-68
2021/12/12 04:57:22;;;;;;;12.43;7.90;;;3.90;99.90;;;;;;5053298;28;20625;-67
2021/12/12 04:59:55;;;;;;;16.25;8.63;;;3.70;99.90;;;;;;5052732;28;20226;-68
2021/12/12 05:02:28;;;;;;;13.38;10.15;;;3.80;99.90;;;;;;5050715;28;20874;-67
2021/12/12 05:05:00;;;;;;;14.00;9.55;;;3.60;99.90;;;;;;5044819;28;20199;-67
2021/12/12 05:07:35;;;;;;;13.30;11.10;;;3.50;99.90;;;;;;5072797;28;20227;-67
2021/12/12 05:10:07;;;;;;;12.60;10.65;;;3.30;99.90;;;;;;5072517;28;20203;-68
2021/12/12 05:12:43;;;;;;;21.02;14.52;;;3.20;99.90;;;;;;5072850;28;20278;-68
2021/12/12 05:15:16;;;;;;;19.83;14.65;;;3.00;99.90;;;;;;5073269;28;20229;-67
2021/12/12 05:17:50;;;;;;;21.75;17.17;;;2.80;99.90;;;;;;5072655;28;20219;-68
2021/12/12 05:20:22;;;;;;;23.00;17.80;;;2.70;99.90;;;;;;5072334;28;20571;-68
2021/12/12 05:22:53;;;;;;;19.05;16.23;;;2.80;99.90;;;;;;5064572;28;20287;-67
2021/12/12 05:25:25;;;;;;;19.48;15.98;;;2.80;99.90;;;;;;5032671;28;20749;-68
2021/12/12 05:27:56;;;;;;;18.67;14.95;;;2.90;99.90;;;;;;5033457;28;20288;-67
2021/12/12 05:30:28;;;;;;;19.27;14.77;;;2.90;99.90;;;;;;5043265;28;20266;-68
2021/12/12 05:32:56;;;;;;;15.18;13.25;;;2.90;99.90;;;;;;5032434;28;20232;-67
2021/12/12 05:35:28;;;;;;;17.27;12.38;;;2.90;99.90;;;;;;5046099;28;20231;-67
2021/12/12 05:37:59;;;;;;;12.88;11.38;;;3.00;99.90;;;;;;5071475;28;20234;-67
2021/12/12 05:40:31;;;;;;;14.80;11.40;;;3.20;99.90;;;;;;5071690;28;20199;-66
2021/12/12 05:43:02;;;;;;;15.20;11.85;;;3.20;99.90;;;;;;5065746;28;20279;-67
2021/12/12 05:45:32;;;;;;;10.95;9.82;;;3.30;99.90;;;;;;5052190;28;20279;-68
2021/12/12 05:48:02;;;;;;;11.82;10.63;;;3.30;99.90;;;;;;5052377;28;20629;-66
2021/12/12 05:50:30;;;;;;;12.73;10.20;;;3.30;99.90;;;;;;5054048;28;20227;-67
2021/12/12 05:52:58;;;;;;;14.35;11.00;;;3.20;99.90;;;;;;5059733;28;20227;-67
2021/12/12 05:55:29;;;;;;;13.43;9.40;;;3.20;99.90;;;;;;5063315;28;20288;-66
2021/12/12 05:57:59;;;;;;;13.10;9.30;;;3.10;99.90;;;;;;5063670;28;20302;-66
2021/12/12 06:00:31;;;;;;;12.23;8.73;;;2.80;99.90;;;;;;5062541;28;20275;-67
2021/12/12 06:03:01;;;;;;;12.02;8.30;;;2.60;99.90;;;;;;5061110;28;20219;-67
2021/12/12 06:05:31;;;;;;;9.10;7.78;;;2.60;99.90;;;;;;5067637;28;20218;-65
2021/12/12 06:08:00;;;;;;;9.88;7.80;;;2.60;99.90;;;;;;5069578;28;20225;-67
2021/12/12 06:10:28;;;;;;;12.43;8.32;;;2.60;99.90;;;;;;5071329;28;20242;-67
2021/12/12 06:12:57;;;;;;;10.60;7.43;;;2.80;99.90;;;;;;5071675;28;20580;-67
2021/12/12 06:15:30;;;;;;;9.43;6.97;;;2.90;99.90;;;;;;5071647;28;20223;-65
2021/12/12 06:17:59;;;;;;;9.70;6.82;;;2.90;99.90;;;;;;5061657;28;20278;-67
2021/12/12 06:20:28;;;;;;;10.57;7.40;;;2.80;99.90;;;;;;5041391;28;20708;-67
2021/12/12 06:22:57;;;;;;;9.60;7.07;;;2.70;99.90;;;;;;5031610;28;20803;-67
2021/12/12 06:25:25;;;;;;;11.05;6.78;;;2.70;99.90;;;;;;5031611;28;20197;-67
2021/12/12 06:27:54;;;;;;;8.25;6.03;;;2.90;99.90;;;;;;5048253;28;20279;-67
2021/12/12 06:30:24;;;;;;;9.02;7.32;;;3.00;99.90;;;;;;5046332;28;20231;-66
2021/12/12 06:32:54;;;;;;;11.77;7.40;;;3.10;99.90;;;;;;5051451;28;20610;-67
2021/12/12 06:35:23;;;;;;;10.30;7.03;;;3.00;99.90;;;;;;5033572;28;20191;-67
2021/12/12 06:37:51;;;;;;;12.48;6.90;;;3.10;99.90;;;;;;5049944;28;20252;-68
2021/12/12 06:40:22;;;;;;;9.90;6.68;;;2.90;99.90;;;;;;5050186;28;20196;-67
2021/12/12 06:42:51;;;;;;;8.65;5.85;;;2.90;99.90;;;;;;5046747;28;20240;-67
2021/12/12 06:45:19;;;;;;;7.90;6.82;;;2.80;99.90;;;;;;5038566;28;20627;-67
2021/12/12 06:47:48;;;;;;;9.75;6.82;;;2.60;99.90;;;;;;5031452;28;20244;-67
2021/12/12 06:50:17;;;;;;;9.48;6.65;;;2.60;99.90;;;;;;5031006;28;20276;-67
2021/12/12 06:52:47;;;;;;;11.52;6.93;;;2.50;99.90;;;;;;5031309;28;20296;-67
2021/12/12 06:55:16;;;;;;;11.88;6.35;;;2.30;99.90;;;;;;5035952;28;20271;-67
2021/12/12 06:57:44;;;;;;;9.55;6.93;;;2.30;99.90;;;;;;5034713;28;20248;-68
2021/12/12 07:00:15;;;;;;;9.10;7.00;;;2.30;99.90;;;;;;5031156;28;20283;-65
2021/12/12 07:02:45;;;;;;;11.38;6.65;;;2.40;99.90;;;;;;5052241;28;20319;-67
2021/12/12 07:05:16;;;;;;;7.32;6.55;;;2.30;99.90;;;;;;5056845;28;20673;-67
2021/12/12 07:07:45;;;;;;;10.45;6.63;;;2.30;99.90;;;;;;5059548;28;20303;-69
2021/12/12 07:10:16;;;;;;;9.00;6.60;;;2.30;99.90;;;;;;5060273;28;20219;-68
2021/12/12 07:12:45;;;;;;;8.80;6.60;;;2.30;99.90;;;;;;5057787;28;20307;-69
2021/12/12 07:15:16;;;;;;;9.95;6.70;;;2.40;99.90;;;;;;5049142;28;20251;-68
2021/12/12 07:17:45;;;;;;;12.10;7.00;;;2.50;99.90;;;;;;5034444;28;20243;-68
2021/12/12 07:20:13;;;;;;;13.13;6.80;;;2.50;99.90;;;;;;5040388;28;20228;-68
2021/12/12 07:22:42;;;;;;;8.93;6.55;;;2.50;99.90;;;;;;5035542;28;20296;-68
2021/12/12 07:25:11;;;;;;;9.40;6.78;;;2.50;99.90;;;;;;5034227;28;20217;-68
2021/12/12 07:27:39;;;;;;;7.72;6.85;;;2.40;99.90;;;;;;5034075;28;20217;-68
2021/12/12 07:30:10;;;;;;;10.45;7.10;;;2.50;99.90;;;;;;5033978;28;20287;-68
2021/12/12 07:32:40;;;;;;;14.13;6.45;;;2.40;99.90;;;;;;5033886;28;20221;-68
2021/12/12 07:35:08;;;;;;;8.20;6.93;;;2.50;99.90;;;;;;5034289;28;20259;-68
2021/12/12 07:37:37;;;;;;;13.07;7.90;;;2.40;99.90;;;;;;5041268;28;20765;-67
2021/12/12 07:40:08;;;;;;;10.32;7.55;;;2.40;99.90;;;;;;5035615;28;20323;-67
2021/12/12 07:42:38;;;;;;;10.02;7.18;;;2.50;99.90;;;;;;5033721;28;20299;-70
2021/12/12 07:45:08;;;;;;;10.07;6.78;;;2.50;99.90;;;;;;5033711;28;20238;-68
2021/12/12 07:47:36;;;;;;;9.38;6.53;;;2.50;99.90;;;;;;5033746;28;20240;-68
2021/12/12 07:50:07;;;;;;;12.32;8.75;;;2.50;99.90;;;;;;5033807;28;20208;-68
2021/12/12 07:52:36;;;;;;;10.32;8.30;;;2.40;99.90;;;;;;5048953;28;20215;-67
2021/12/12 07:55:06;;;;;;;9.27;7.00;;;2.40;99.90;;;;;;5052589;28;20575;-67
2021/12/12 07:57:34;;;;;;;13.50;7.25;;;2.40;99.90;;;;;;5052367;28;20299;-67
2021/12/12 08:00:07;;;;;;;10.05;7.40;;;2.40;99.90;;;;;;5098272;22;20672;-66
2021/12/12 08:02:35;;;;;;;9.88;7.40;;;2.40;99.90;;;;;;5067889;28;20752;-65
2021/12/12 08:05:05;;;;;;;9.90;7.45;;;2.40;99.90;;;;;;5053763;28;20303;-65
2021/12/12 08:07:34;;;;;;;9.52;7.82;;;2.40;99.90;;;;;;5058873;28;20551;-65
2021/12/12 08:10:04;;;;;;;8.38;7.57;;;2.40;99.90;;;;;;5056748;28;20243;-65
2021/12/12 08:12:32;;;;;;;11.73;8.38;;;2.40;99.90;;;;;;5053364;28;20263;-64
2021/12/12 08:15:05;;;;;;;10.88;8.57;;;2.40;99.90;;;;;;5053330;28;20208;-65
2021/12/12 08:17:34;;;;;;;11.63;7.65;;;2.40;99.90;;;;;;5063402;28;20199;-65
2021/12/12 08:20:05;;;;;;;10.05;8.52;;;2.50;99.90;;;;;;5054919;28;20247;-65
2021/12/12 08:22:35;;;;;;;11.90;8.35;;;2.50;99.90;;;;;;5053223;28;20301;-65
2021/12/12 08:25:06;;;;;;;9.80;7.97;;;2.50;99.90;;;;;;5052552;28;20208;-64
2021/12/12 08:27:34;;;;;;;10.60;8.57;;;2.50;99.90;;;;;;5052980;28;20703;-65
2021/12/12 08:30:05;;;;;;;9.27;8.27;;;2.50;99.90;;;;;;5053086;28;20299;-64
2021/12/12 08:32:33;;;;;;;11.13;7.93;;;2.60;99.90;;;;;;5056962;28;20195;-64
2021/12/12 08:35:10;;;;;;;10.30;7.80;;;2.60;99.90;;;;;;5053035;28;20196;-64
2021/12/12 08:37:40;;;;;;;13.27;9.18;;;2.60;99.90;;;;;;5054702;28;20188;-65
2021/12/12 08:40:10;;;;;;;10.98;9.90;;;2.60;99.90;;;;;;5055698;28;20252;-64
2021/12/12 08:42:38;;;;;;;9.20;8.20;;;2.60;99.90;;;;;;5052681;28;20243;-64
2021/12/12 08:45:12;;;;;;;13.95;8.38;;;2.70;99.90;;;;;;5052987;28;20227;-64
2021/12/12 08:47:41;;;;;;;13.27;9.27;;;2.70;99.90;;;;;;5063037;28;20668;-64
2021/12/12 08:50:13;;;;;;;18.20;9.13;;;2.70;99.90;;;;;;5073282;28;20634;-65
2021/12/12 08:52:43;;;;;;;12.55;8.13;;;2.70;99.90;;;;;;5068650;28;20843;-64
2021/12/12 08:55:19;;;;;;;9.93;8.02;;;2.80;99.90;;;;;;5053046;28;20196;-64
2021/12/12 08:57:58;;;;;;;9.77;7.75;;;2.80;99.90;;;;;;5052681;28;20799;-64
2021/12/12 09:00:35;;;;;;;10.65;8.10;;;2.80;99.90;;;;;;5052143;28;20246;-63
2021/12/12 09:03:05;;;;;;;11.50;9.43;;;2.80;99.90;;;;;;5052318;28;20287;-63
2021/12/12 09:05:36;;;;;;;9.95;8.18;;;2.90;99.90;;;;;;5073090;28;20803;-65
2021/12/12 09:08:37;;;;;;;11.38;8.43;;;2.90;99.90;;;;;;5063489;28;20297;-64
2021/12/12 09:11:08;;;;;;;10.00;8.77;;;3.00;99.90;;;;;;5057369;28;20338;-64
2021/12/12 09:13:43;;;;;;;9.75;8.75;;;3.00;99.90;;;;;;5052413;28;20257;-66
2021/12/12 09:16:19;;;;;;;12.27;8.18;;;3.00;99.90;;;;;;5052042;28;20228;-65
2021/12/12 09:18:52;;;;;;;12.02;8.38;;;3.00;99.90;;;;;;5072198;28;20210;-65
2021/12/12 09:21:26;;;;;;;14.48;9.05;;;3.10;99.90;;;;;;5052582;28;20226;-65
2021/12/12 09:24:05;;;;;;;10.27;8.65;;;3.20;99.90;;;;;;5055364;28;20318;-65
2021/12/12 09:26:37;;;;;;;11.35;9.18;;;3.20;99.90;;;;;;5072751;28;20230;-64
2021/12/12 09:29:13;;;;;;;9.82;8.60;;;3.20;99.90;;;;;;5072795;28;20249;-65
2021/12/12 09:31:50;;;;;;;12.95;9.35;;;3.20;99.90;;;;;;5071999;28;20284;-65
2021/12/12 09:34:26;;;;;;;12.90;8.75;;;3.30;99.90;;;;;;5070427;28;20698;-64
2021/12/12 09:37:18;;;;;;;12.13;8.00;;;3.20;99.90;;;;;;5061928;28;20290;-65
2021/12/12 09:39:56;;;;;;;11.40;8.52;;;3.20;99.90;;;;;;5065596;28;20225;-64
2021/12/12 09:42:39;;;;;;;10.45;9.35;;;3.10;99.90;;;;;;5080980;28;20206;-64
2021/12/12 09:45:32;;;;;;;11.23;9.68;;;3.00;99.90;;;;;;5047091;28;20222;-64
2021/12/12 09:51:30;;;;;;;14.20;12.02;;;2.90;99.90;;;;;;5071393;28;20837;-64
2021/12/12 09:54:34;;;;;;;15.68;11.48;;;2.90;99.90;;;;;;5063322;28;20219;-64
2021/12/12 09:57:07;;;;;;;13.38;11.02;;;2.90;99.90;;;;;;5068194;28;20214;-65
2021/12/12 09:59:49;;;;;;;18.45;13.27;;;2.80;99.90;;;;;;5076823;28;20839;-64
2021/12/12 10:02:25;;;;;;;14.07;12.40;;;2.80;99.90;;;;;;5072277;28;20226;-66
2021/12/12 10:05:15;;;;;;;13.23;11.48;;;2.90;99.90;;;;;;5061709;28;20231;-64
2021/12/12 10:07:54;;;;;;;15.80;11.80;;;2.90;99.90;;;;;;5065963;28;20299;-66
2021/12/12 10:10:27;;;;;;;12.95;11.32;;;3.00;99.90;;;;;;5064950;28;20306;-64
2021/12/12 10:13:03;;;;;;;14.02;10.68;;;3.10;99.90;;;;;;5068741;28;20254;-64
2021/12/12 10:15:38;;;;;;;12.20;10.18;;;3.20;99.90;;;;;;5065616;28;20557;-65
2021/12/12 10:18:16;;;;;;;15.88;11.13;;;3.30;99.90;;;;;;5067021;28;20321;-66
2021/12/12 10:20:54;;;;;;;11.05;9.25;;;3.30;99.90;;;;;;5066365;28;20227;-65
2021/12/12 10:23:35;;;;;;;13.88;10.90;;;3.30;99.90;;;;;;5064882;28;20246;-65
2021/12/12 10:26:07;;;;;;;15.93;10.60;;;3.30;99.90;;;;;;5065663;28;20271;-66
2021/12/12 10:28:42;;;;;;;13.18;9.75;;;3.20;99.90;;;;;;5066129;28;20252;-66
2021/12/12 10:31:17;;;;;;;15.27;9.75;;;3.20;99.90;;;;;;5069664;28;20194;-65
2021/12/12 10:33:50;;;;;;;12.25;9.60;;;3.20;99.90;;;;;;5061306;28;20716;-64
2021/12/12 10:36:22;;;;;;;15.48;11.20;;;3.20;99.90;;;;;;5066168;28;20230;-66
2021/12/12 10:38:55;;;;;;;15.32;10.32;;;3.30;99.90;;;;;;5064668;28;20301;-66
2021/12/12 10:41:26;;;;;;;14.05;10.05;;;3.30;99.90;;;;;;5065432;28;20325;-65
2021/12/12 10:43:58;;;;;;;18.02;10.68;;;3.30;99.90;;;;;;5064538;28;20295;-65
2021/12/12 10:46:38;;;;;;;12.23;10.07;;;3.30;99.90;;;;;;5069517;28;20286;-65
2021/12/12 10:49:15;;;;;;;14.07;10.23;;;3.30;99.90;;;;;;5065565;28;20228;-65
2021/12/12 10:51:49;;;;;;;18.27;11.25;;;3.40;99.90;;;;;;5065874;28;20231;-63
2021/12/12 10:54:22;;;;;;;13.77;11.20;;;3.40;99.90;;;;;;5064615;28;20663;-67
2021/12/12 10:56:56;;;;;;;18.83;13.05;;;3.40;99.90;;;;;;5062167;28;20290;-66
2021/12/12 10:59:32;;;;;;;15.40;11.38;;;3.30;99.90;;;;;;5073572;28;20792;-65
2021/12/12 11:02:04;;;;;;;14.95;10.82;;;3.40;99.90;;;;;;5065868;28;20282;-65
2021/12/12 11:04:39;;;;;;;14.02;11.07;;;3.40;99.90;;;;;;5064811;28;20227;-65
2021/12/12 11:07:13;;;;;;;19.42;11.45;;;3.40;99.90;;;;;;5065129;28;20229;-65
2021/12/12 11:09:45;;;;;;;14.85;11.48;;;3.40;99.90;;;;;;5065877;28;20218;-65
2021/12/12 11:12:18;;;;;;;14.75;11.60;;;3.40;99.90;;;;;;5065098;28;20283;-69
2021/12/12 11:14:54;;;;;;;13.75;12.35;;;3.50;99.90;;;;;;5065709;28;20278;-65
2021/12/12 11:17:27;;;;;;;13.77;12.05;;;3.50;99.90;;;;;;5068673;28;20256;-66
2021/12/12 11:20:01;;;;;;;17.63;12.57;;;3.50;99.90;;;;;;5065554;28;20365;-66
2021/12/12 11:22:35;;;;;;;16.23;12.05;;;3.50;99.90;;;;;;5064063;28;20210;-67
2021/12/12 11:25:08;;;;;;;23.55;12.70;;;3.50;99.90;;;;;;5065423;28;20315;-66
2021/12/12 11:27:43;;;;;;;13.68;12.23;;;3.50;99.90;;;;;;5065732;28;20196;-66
2021/12/12 11:30:18;;;;;;;16.48;11.93;;;3.50;99.90;;;;;;5072728;28;20242;-66
2021/12/12 11:32:47;;;;;;;16.10;12.25;;;3.60;99.90;;;;;;5069327;28;20705;-66
2021/12/12 11:35:18;;;;;;;19.25;12.95;;;3.70;99.90;;;;;;5063107;28;20201;-65
2021/12/12 11:37:55;;;;;;;16.95;11.73;;;3.60;99.90;;;;;;5062378;28;20290;-66
2021/12/12 11:40:27;;;;;;;13.13;11.20;;;3.70;99.90;;;;;;5064889;28;20253;-66
2021/12/12 11:43:00;;;;;;;15.30;11.55;;;3.70;99.90;;;;;;5070906;28;20251;-66
2021/12/12 11:45:31;;;;;;;24.98;12.30;;;3.70;99.90;;;;;;5063242;28;20268;-66
2021/12/12 11:48:10;;;;;;;16.48;10.77;;;3.70;99.90;;;;;;5065572;28;20711;-67
2021/12/12 11:50:46;;;;;;;15.55;10.63;;;3.70;99.90;;;;;;5072886;28;20293;-66
2021/12/12 11:53:22;;;;;;;14.63;11.18;;;3.70;99.90;;;;;;5063105;28;20234;-68
2021/12/12 11:55:54;;;;;;;15.90;11.00;;;4.60;99.90;;;;;;5063198;28;20274;-66
2021/12/12 11:58:29;;;;;;;13.27;10.65;;;3.90;99.90;;;;;;5063353;28;20280;-66
2021/12/12 12:01:06;;;;;;;16.48;10.90;;;3.90;99.90;;;;;;5075326;28;20197;-67
2021/12/12 12:03:54;;;;;;;12.25;10.23;;;3.90;99.90;;;;;;5073438;28;20264;-65
2021/12/12 12:06:30;;;;;;;15.00;10.75;;;3.90;99.90;;;;;;5066407;28;20224;-65
2021/12/12 12:09:07;;;;;;;19.90;12.35;;;3.90;99.90;;;;;;5067655;28;20306;-67
2021/12/12 12:12:05;;;;;;;17.70;12.32;;;4.00;99.90;;;;;;5077009;28;20206;-65
2021/12/12 12:14:39;;;;;;;14.00;12.52;;;4.10;99.90;;;;;;5065792;28;20771;-66
2021/12/12 12:17:12;;;;;;;13.57;12.07;;;4.10;99.90;;;;;;5068433;28;20263;-66
2021/12/12 12:19:53;;;;;;;14.27;10.32;;;4.00;99.90;;;;;;5076479;28;20254;-67
2021/12/12 12:22:33;;;;;;;9.65;8.65;;;4.00;99.90;;;;;;5082092;28;20279;-67
2021/12/12 12:25:16;;;;;;;14.40;11.50;;;4.00;99.90;;;;;;5072156;28;20257;-65
2021/12/12 12:27:53;;;;;;;18.05;11.35;;;4.00;99.90;;;;;;5067580;28;20231;-66
2021/12/12 12:31:10;;;;;;;18.75;10.98;;;4.00;99.90;;;;;;5071311;28;20223;-66
2021/12/12 12:34:43;;;;;;;14.80;11.85;;;4.00;99.90;;;;;;5066320;28;20672;-66
2021/12/12 12:38:12;;;;;;;14.80;11.27;;;4.10;99.90;;;;;;5064236;28;20381;-65
2021/12/12 12:41:40;;;;;;;17.52;11.50;;;4.10;99.90;;;;;;5067429;28;20237;-66
2021/12/12 12:44:45;;;;;;;15.95;11.90;;;4.10;99.90;;;;;;5067078;28;20286;-66
2021/12/12 12:48:05;;;;;;;14.80;11.77;;;4.10;99.90;;;;;;5064231;28;20293;-66
2021/12/12 12:50:42;;;;;;;13.50;11.70;;;4.00;99.90;;;;;;5067891;28;20310;-65
2021/12/12 12:53:32;;;;;;;14.77;11.35;;;4.00;99.90;;;;;;5066868;28;20252;-65
2021/12/12 12:56:14;;;;;;;15.40;13.10;;;4.10;99.90;;;;;;5067735;28;20297;-66
2021/12/12 12:59:24;;;;;;;30.60;16.60;;;4.00;99.90;;;;;;5067755;28;20235;-65
2021/12/12 13:02:02;;;;;;;25.55;17.92;;;6.00;99.90;;;;;;5067785;28;20670;-65
2021/12/12 13:04:35;;;;;;;21.33;15.55;;;7.40;99.90;;;;;;5063022;28;20221;-66
2021/12/12 13:07:23;;;;;;;18.58;14.77;;;6.80;99.90;;;;;;5066644;28;20248;-66
2021/12/12 13:10:00;;;;;;;13.23;10.27;;;7.30;99.90;;;;;;5067192;28;20211;-66
2021/12/12 13:12:57;;;;;;;13.93;9.23;;;7.70;99.90;;;;;;5066169;28;20206;-67
2021/12/12 13:15:49;;;;;;;13.07;7.65;;;7.20;99.90;;;;;;5061710;28;20285;-70
2021/12/12 13:18:27;;;;;;;10.82;8.32;;;7.40;99.90;;;;;;5040281;28;20580;-67
2021/12/12 13:21:17;;;;;;;7.35;6.57;;;7.40;99.90;;;;;;5056809;28;20278;-67
2021/12/12 13:23:58;;;;;;;9.73;6.80;;;8.00;99.90;;;;;;5060027;28;20285;-68
2021/12/12 13:26:47;;;;;;;7.88;6.53;;;7.70;99.90;;;;;;5059539;28;20249;-68
2021/12/12 13:29:31;;;;;;;8.68;6.05;;;7.90;99.90;;;;;;5057509;28;20314;-67
2021/12/12 13:32:05;;;;;;;9.85;7.85;;;7.90;99.90;;;;;;5069363;28;20640;-67
2021/12/12 13:34:39;;;;;;;10.45;7.03;;;7.00;99.90;;;;;;5065096;28;20679;-67
2021/12/12 13:37:20;;;;;;;8.00;6.55;;;6.80;99.90;;;;;;5065554;28;20285;-67
2021/12/12 13:40:02;;;;;;;10.90;6.80;;;6.70;99.90;;;;;;5060332;28;20718;-67